Time;durP1;ratioP1;P1;durP2;ratioP2;P2;SDS_P1;SDS_P2;PMS_P1;PMS_P2;Temp;Humidity;BMP_temperature;BMP_pressure;BME280_temperature;BME280_humidity;BME280_pressure;Samples;Min_cycle;Max_cycle;Signal;HPM_P1;HPM_P2
2022/08/19 00:02:26;;;;;;;1.10;0.60;;;14.70;99.90;;;;;;4799834;29;20094;-87
2022/08/19 00:04:52;;;;;;;0.90;0.70;;;14.70;99.90;;;;;;4789393;29;20050;-86
2022/08/19 00:07:21;;;;;;;1.02;0.57;;;14.60;99.90;;;;;;4789844;29;20047;-87
2022/08/19 00:09:47;;;;;;;1.30;0.77;;;14.60;99.90;;;;;;4789603;29;20129;-87
2022/08/19 00:12:15;;;;;;;1.23;0.75;;;14.60;99.90;;;;;;4806163;29;20149;-87
2022/08/19 00:14:44;;;;;;;2.35;0.85;;;14.70;99.90;;;;;;4790424;29;20058;-87
2022/08/19 00:17:10;;;;;;;1.52;1.05;;;15.00;99.90;;;;;;4784210;29;20074;-87
2022/08/19 00:19:42;;;;;;;2.28;1.08;;;14.50;99.90;;;;;;4787336;29;20442;-85
2022/08/19 00:22:08;;;;;;;1.67;0.90;;;14.50;99.90;;;;;;4783765;29;20050;-87
2022/08/19 00:24:35;;;;;;;1.73;1.20;;;14.80;99.90;;;;;;4788479;29;20051;-87
2022/08/19 00:27:15;;;;;;;1.15;0.95;;;14.60;99.90;;;;;;4805314;29;20043;-86
2022/08/19 00:29:52;;;;;;;1.55;1.02;;;14.50;99.90;;;;;;4789483;29;20066;-87
2022/08/19 00:32:28;;;;;;;1.75;1.10;;;14.50;99.90;;;;;;4798717;29;20061;-86
2022/08/19 00:35:23;;;;;;;2.50;1.23;;;14.90;99.90;;;;;;4805221;29;20062;-86
2022/08/19 00:38:22;;;;;;;2.10;1.17;;;14.40;99.90;;;;;;4748815;30;20063;-86
2022/08/19 00:40:53;;;;;;;3.35;1.15;;;14.40;99.90;;;;;;4718193;30;20063;-87
2022/08/19 00:43:26;;;;;;;1.50;1.00;;;14.50;99.90;;;;;;4734582;30;20061;-87
2022/08/19 00:46:04;;;;;;;2.28;1.00;;;14.50;99.90;;;;;;4720171;30;20118;-86
2022/08/19 00:56:10;;;;;;;2.80;1.50;;;14.20;99.90;;;;;;4729285;30;20086;-87
2022/08/19 00:58:47;;;;;;;2.28;1.30;;;14.40;99.90;;;;;;4720624;30;20099;-87
2022/08/19 01:01:21;;;;;;;2.10;1.15;;;14.20;99.90;;;;;;4718748;30;20048;-87
2022/08/19 01:03:52;;;;;;;2.78;1.25;;;14.30;99.90;;;;;;4726663;30;20056;-87
2022/08/19 01:06:18;;;;;;;2.47;1.17;;;14.30;99.90;;;;;;4731919;30;20060;-87
2022/08/19 01:08:50;;;;;;;1.90;1.10;;;14.30;99.90;;;;;;4731229;30;20040;-87
2022/08/19 01:11:33;;;;;;;1.92;1.20;;;14.30;99.90;;;;;;4703093;30;20102;-87
2022/08/19 01:14:17;;;;;;;1.20;0.90;;;14.30;99.90;;;;;;4722831;30;20592;-87
2022/08/19 01:17:02;;;;;;;1.33;0.90;;;14.20;99.90;;;;;;4787308;30;20462;-87
2022/08/19 01:23:48;;;;;;;1.83;1.30;;;14.20;99.90;;;;;;4780959;30;20506;-86
2022/08/19 01:29:38;;;;;;;1.50;0.80;;;14.10;99.90;;;;;;4751089;30;20059;-86
2022/08/19 01:32:31;;;;;;;1.27;0.60;;;14.30;99.90;;;;;;4749703;30;20087;-86
2022/08/19 01:35:18;;;;;;;1.60;0.60;;;14.10;99.90;;;;;;4767139;30;20100;-86
2022/08/19 01:37:57;;;;;;;0.77;0.50;;;13.80;99.90;;;;;;4761732;30;20055;-86
2022/08/19 01:40:43;;;;;;;1.02;0.50;;;14.10;99.90;;;;;;4750953;30;20063;-87
2022/08/19 01:43:28;;;;;;;0.60;0.45;;;14.10;99.90;;;;;;4751739;30;20410;-85
2022/08/19 01:45:57;;;;;;;0.90;0.57;;;14.20;99.90;;;;;;4752116;30;20052;-86
2022/08/19 01:55:48;;;;;;;0.57;0.30;;;13.80;99.90;;;;;;4767929;30;20034;-86
2022/08/19 01:58:24;;;;;;;0.60;0.28;;;13.90;99.90;;;;;;4751980;30;20189;-87
2022/08/19 02:00:52;;;;;;;0.70;0.40;;;13.70;99.90;;;;;;4767087;30;20539;-84
2022/08/19 02:07:39;;;;;;;0.90;0.55;;;14.00;99.90;;;;;;4776669;29;20500;-86
2022/08/19 02:10:13;;;;;;;0.77;0.60;;;13.80;99.90;;;;;;4786919;30;20051;-87
2022/08/19 02:12:50;;;;;;;1.05;0.40;;;13.80;99.90;;;;;;4781430;29;20058;-87
2022/08/19 02:15:20;;;;;;;0.40;0.30;;;13.60;99.90;;;;;;4808385;29;20425;-87
2022/08/19 02:17:49;;;;;;;0.40;0.30;;;13.80;99.90;;;;;;4786659;29;20068;-87
2022/08/19 02:20:16;;;;;;;2.35;0.40;;;13.80;99.90;;;;;;4785877;29;20501;-87
2022/08/19 02:22:42;;;;;;;0.40;0.30;;;13.90;99.90;;;;;;4775463;30;20101;-88
2022/08/19 02:25:11;;;;;;;0.80;0.40;;;13.60;99.90;;;;;;4780936;29;20051;-87
2022/08/19 02:27:40;;;;;;;0.57;0.40;;;14.00;99.90;;;;;;4785249;29;20051;-87
2022/08/19 02:30:07;;;;;;;0.65;0.40;;;13.50;99.90;;;;;;4801192;29;20056;-87
2022/08/19 02:32:38;;;;;;;0.65;0.40;;;13.50;99.90;;;;;;4784531;29;20051;-87
2022/08/19 02:35:05;;;;;;;0.98;0.50;;;13.50;99.90;;;;;;4784601;29;20047;-87
2022/08/19 02:40:17;;;;;;;1.33;0.50;;;13.50;99.90;;;;;;4785754;29;20468;-87
2022/08/19 02:42:45;;;;;;;1.20;0.60;;;13.80;99.90;;;;;;4790023;29;20059;-85
2022/08/19 02:45:12;;;;;;;1.08;0.55;;;13.60;99.90;;;;;;4788715;29;20044;-88
2022/08/19 02:47:37;;;;;;;0.80;0.60;;;13.60;99.90;;;;;;4788326;29;20098;-88
2022/08/19 02:50:04;;;;;;;1.65;0.60;;;13.60;99.90;;;;;;4788888;29;20083;-87
2022/08/19 02:52:32;;;;;;;0.80;0.40;;;13.50;99.90;;;;;;4774165;29;20520;-87
2022/08/19 02:54:58;;;;;;;2.10;0.35;;;13.50;99.90;;;;;;4789148;29;20055;-87
2022/08/19 02:57:24;;;;;;;0.30;0.30;;;13.50;99.90;;;;;;4774065;30;20506;-87
2022/08/19 02:59:50;;;;;;;0.52;0.28;;;13.60;99.90;;;;;;4782742;30;20059;-85
2022/08/19 03:02:16;;;;;;;0.50;0.30;;;14.00;99.90;;;;;;4788364;29;20055;-87
2022/08/19 03:04:42;;;;;;;0.45;0.28;;;13.50;99.90;;;;;;4787803;29;20066;-87
2022/08/19 03:07:08;;;;;;;1.15;0.50;;;13.50;99.90;;;;;;4788887;29;20417;-88
2022/08/19 03:09:37;;;;;;;0.93;0.40;;;13.50;99.90;;;;;;4803657;29;20055;-86
2022/08/19 03:12:06;;;;;;;0.40;0.30;;;13.50;99.90;;;;;;4788391;29;20067;-88
2022/08/19 03:14:33;;;;;;;0.80;0.60;;;13.50;99.90;;;;;;4785052;29;20089;-86
2022/08/19 03:17:00;;;;;;;0.98;0.50;;;13.50;99.90;;;;;;4787990;29;20126;-87
2022/08/19 03:19:27;;;;;;;1.15;0.60;;;13.50;99.90;;;;;;4788052;29;20534;-87
2022/08/19 03:21:53;;;;;;;0.63;0.50;;;13.60;99.90;;;;;;4789377;29;20051;-86
2022/08/19 03:24:21;;;;;;;1.77;0.50;;;13.50;99.90;;;;;;4789563;29;20051;-88
2022/08/19 03:26:55;;;;;;;0.82;0.50;;;13.50;99.90;;;;;;4788199;29;20451;-89
2022/08/19 03:29:21;;;;;;;1.00;0.70;;;13.70;99.90;;;;;;4782605;30;20055;-88
2022/08/19 03:31:55;;;;;;;1.30;0.68;;;13.50;99.90;;;;;;4787984;29;20521;-88
2022/08/19 03:34:26;;;;;;;1.40;0.80;;;13.20;99.90;;;;;;4769795;30;20047;-87
2022/08/19 03:36:54;;;;;;;1.30;0.80;;;13.50;99.90;;;;;;4795721;29;20066;-87
2022/08/19 03:39:25;;;;;;;1.73;0.70;;;13.50;99.90;;;;;;4789217;29;20086;-86
2022/08/19 03:42:02;;;;;;;1.77;0.90;;;13.60;99.90;;;;;;4789556;29;20142;-87
2022/08/19 03:44:37;;;;;;;1.80;0.90;;;13.50;99.90;;;;;;4791673;29;20043;-88
2022/08/19 03:47:06;;;;;;;;;;;13.70;99.90;;;;;;4790628;29;20059;-87
2022/08/19 03:49:34;;;;;;;1.02;0.63;;;13.50;99.90;;;;;;4787314;29;19925;-87
2022/08/19 03:52:07;;;;;;;1.15;0.70;;;13.50;99.90;;;;;;4787799;29;20167;-87
2022/08/19 03:54:33;;;;;;;0.98;0.55;;;13.50;99.90;;;;;;4783479;29;20561;-88
2022/08/19 03:56:59;;;;;;;1.38;0.70;;;13.50;99.90;;;;;;4788605;29;20200;-88
2022/08/19 03:59:39;;;;;;;1.05;0.70;;;13.10;99.90;;;;;;4781646;29;20055;-87
2022/08/19 04:02:11;;;;;;;2.55;0.88;;;13.40;99.90;;;;;;4794556;29;20055;-88
2022/08/19 04:04:43;;;;;;;1.10;0.70;;;13.50;99.90;;;;;;4802930;29;20470;-89
2022/08/19 04:07:15;;;;;;;1.00;0.60;;;13.50;99.90;;;;;;4772537;30;20066;-87
2022/08/19 04:09:45;;;;;;;1.25;0.80;;;13.50;99.90;;;;;;4779151;30;20047;-88
2022/08/19 04:12:11;;;;;;;0.90;0.60;;;13.50;99.90;;;;;;4787790;29;20058;-89
2022/08/19 04:14:39;;;;;;;0.65;0.40;;;13.50;99.90;;;;;;4789004;29;20047;-87
2022/08/19 04:17:26;;;;;;;0.57;0.40;;;13.50;99.90;;;;;;4787278;29;20059;-88
2022/08/19 04:19:52;;;;;;;0.30;0.30;;;13.60;99.90;;;;;;4765082;30;20134;-88
2022/08/19 04:22:26;;;;;;;0.55;0.40;;;13.80;99.90;;;;;;4788112;29;20067;-85
2022/08/19 04:24:55;;;;;;;0.52;0.40;;;13.50;99.90;;;;;;4786768;29;20066;-87
2022/08/19 04:27:24;;;;;;;0.75;0.45;;;13.40;99.90;;;;;;4787862;29;20065;-86
2022/08/19 04:29:49;;;;;;;1.25;0.50;;;13.40;99.90;;;;;;4786426;29;20134;-85
2022/08/19 04:32:15;;;;;;;0.82;0.40;;;13.40;99.90;;;;;;4786847;29;20059;-88
2022/08/19 04:34:42;;;;;;;0.88;0.50;;;13.40;99.90;;;;;;4787506;30;20091;-86
2022/08/19 04:37:12;;;;;;;0.95;0.50;;;13.90;99.90;;;;;;4787011;29;20062;-87
2022/08/19 04:42:38;;;;;;;0.95;0.50;;;13.40;99.90;;;;;;4788071;29;20051;-85
2022/08/19 04:45:14;;;;;;;1.00;0.60;;;13.20;99.90;;;;;;4786931;29;20113;-86
2022/08/19 04:47:47;;;;;;;0.98;0.50;;;13.40;99.90;;;;;;4780716;30;20061;-86
2022/08/19 04:50:13;;;;;;;0.65;0.50;;;13.30;99.90;;;;;;4780651;29;20466;-86
2022/08/19 04:52:46;;;;;;;1.20;0.30;;;13.30;99.90;;;;;;4786913;29;20055;-87
2022/08/19 04:55:15;;;;;;;0.40;0.40;;;13.40;99.90;;;;;;4770671;30;20075;-87
2022/08/19 04:57:50;;;;;;;0.55;0.47;;;13.30;99.90;;;;;;4776541;29;20052;-86
2022/08/19 05:00:22;;;;;;;;;;;13.30;99.90;;;;;;4782652;29;20055;-86
2022/08/19 05:03:10;;;;;;;0.57;0.38;;;13.30;99.90;;;;;;4804448;29;20391;-87
2022/08/19 05:09:22;;;;;;;0.85;0.50;;;13.90;99.90;;;;;;4778920;30;20127;-87
2022/08/19 05:11:49;;;;;;;1.00;0.60;;;13.40;99.90;;;;;;4788160;29;20398;-86
2022/08/19 05:14:15;;;;;;;0.65;0.45;;;13.40;99.90;;;;;;4789839;29;20085;-87
2022/08/19 05:16:41;;;;;;;1.98;0.50;;;14.00;99.90;;;;;;4764063;30;20055;-86
2022/08/19 05:48:34;;;;;;;;;;;;;;;;;;;;;
2022/08/19 05:52:34;;;;;;;;;;;;;;;;;;;;;
2022/08/19 05:59:36;;;;;;;2.43;0.97;;;14.90;99.90;;;;;;4595048;31;20538;-86
2022/08/19 06:12:42;;;;;;;2.28;0.80;;;15.80;99.90;;;;;;4679797;24;20112;-86
2022/08/19 06:15:15;;;;;;;2.13;1.17;;;15.90;99.90;;;;;;4726657;30;20133;-86
2022/08/19 06:17:51;;;;;;;3.88;1.50;;;16.20;99.90;;;;;;4726900;30;20147;-87
2022/08/19 06:20:19;;;;;;;2.38;1.30;;;16.30;99.90;;;;;;4728494;30;20057;-87
2022/08/19 06:22:49;;;;;;;1.40;1.02;;;16.50;99.90;;;;;;4730643;30;20067;-89
2022/08/19 06:25:17;;;;;;;2.30;1.35;;;16.60;99.90;;;;;;4727587;30;20067;-88
2022/08/19 06:27:46;;;;;;;2.85;1.42;;;16.80;99.90;;;;;;4732533;30;20383;-90
2022/08/19 06:32:41;;;;;;;3.00;1.83;;;17.10;99.90;;;;;;4754026;24;20448;-91
2022/08/19 09:59:13;;;;;;;2.95;1.90;;;27.70;99.90;;;;;;981698;24;20039;-91
2022/08/19 10:01:57;;;;;;;4.10;3.03;;;27.90;99.90;;;;;;4684305;30;20504;-87
2022/08/19 10:07:54;;;;;;;5.30;2.13;;;28.30;99.90;;;;;;4700722;30;20064;-86
2022/08/19 10:10:30;;;;;;;3.60;2.70;;;28.40;99.90;;;;;;4700367;30;20076;-87
2022/08/19 10:13:01;;;;;;;4.78;2.47;;;28.40;99.90;;;;;;4700642;30;20079;-86
2022/08/19 10:15:26;;;;;;;2.33;2.13;;;28.50;99.90;;;;;;4704152;24;20094;-86
2022/08/19 10:18:04;;;;;;;3.05;2.00;;;28.60;99.90;;;;;;4683753;30;20058;-87
2022/08/19 10:20:30;;;;;;;3.33;2.20;;;28.70;99.60;;;;;;4698825;30;20056;-85
2022/08/19 10:23:01;;;;;;;2.53;2.03;;;28.80;99.90;;;;;;4683709;30;20504;-85
2022/08/19 10:25:27;;;;;;;3.22;2.60;;;28.90;99.90;;;;;;4683859;30;20469;-86
2022/08/19 10:27:53;;;;;;;3.50;2.55;;;28.70;99.10;;;;;;4684131;30;20054;-86
2022/08/19 10:30:29;;;;;;;5.03;3.15;;;28.60;99.90;;;;;;4683940;30;20070;-86
2022/08/19 12:14:23;;;;;;;3.22;2.38;;;29.80;95.30;;;;;;5028742;24;20455;-85
2022/08/19 12:16:49;;;;;;;3.72;2.70;;;29.90;95.00;;;;;;4717539;30;20060;-88
2022/08/19 12:19:15;;;;;;;3.33;2.75;;;30.00;93.90;;;;;;4709405;30;20084;-91
2022/08/19 12:21:41;;;;;;;3.67;3.22;;;29.90;94.00;;;;;;4720288;30;20091;-88
2022/08/19 12:24:07;;;;;;;4.00;3.60;;;29.90;95.10;;;;;;4735491;30;20064;-88
2022/08/19 12:26:33;;;;;;;4.95;2.97;;;30.00;95.40;;;;;;4728955;30;20061;-87
2022/08/19 12:28:59;;;;;;;3.50;2.88;;;29.90;94.90;;;;;;4728741;30;20491;-87
2022/08/19 12:31:27;;;;;;;3.95;2.40;;;29.80;93.50;;;;;;4714292;30;20068;-87
2022/08/19 12:33:53;;;;;;;4.72;3.08;;;29.70;94.20;;;;;;4713684;30;20499;-88
2022/08/19 12:36:19;;;;;;;4.22;3.15;;;29.80;93.60;;;;;;4712472;30;20061;-85
2022/08/19 12:38:46;;;;;;;5.05;3.25;;;29.70;94.70;;;;;;4716115;30;20475;-87
2022/08/19 12:41:17;;;;;;;3.10;2.80;;;29.50;94.30;;;;;;4722226;30;20095;-87
2022/08/19 12:43:43;;;;;;;4.35;3.03;;;29.50;95.20;;;;;;4724911;30;20392;-86
2022/08/19 12:46:10;;;;;;;4.22;2.80;;;29.50;96.30;;;;;;4703634;30;20114;-89
2022/08/19 12:48:36;;;;;;;4.82;3.60;;;29.40;94.70;;;;;;4711613;30;20057;-89
2022/08/19 12:51:10;;;;;;;4.50;3.45;;;29.40;96.20;;;;;;4709960;30;20056;-91
2022/08/19 12:53:37;;;;;;;4.30;3.58;;;29.20;94.60;;;;;;4723431;30;20049;-89
2022/08/19 12:56:03;;;;;;;3.80;3.40;;;29.20;96.70;;;;;;4715819;30;20411;-94
2022/08/19 12:58:32;;;;;;;3.80;2.70;;;29.00;96.20;;;;;;4730400;30;20061;-89
2022/08/19 13:01:12;;;;;;;3.38;2.90;;;28.90;96.70;;;;;;4731785;30;20655;-92
2022/08/19 13:03:38;;;;;;;5.25;4.10;;;28.80;96.80;;;;;;4714392;30;20082;-89
2022/08/19 13:06:04;;;;;;;4.53;2.92;;;28.70;95.90;;;;;;4732521;30;20063;-91
2022/08/19 13:08:30;;;;;;;4.22;3.25;;;28.60;96.20;;;;;;4715078;30;20136;-92
2022/08/19 13:11:07;;;;;;;3.25;2.95;;;28.40;96.30;;;;;;4719562;30;20416;-90
2022/08/19 13:13:33;;;;;;;5.63;3.10;;;28.40;96.90;;;;;;4725576;30;20060;-94
2022/08/19 13:16:28;;;;;;;;;;;;;;;;;;;;;
2022/08/19 13:18:57;;;;;;;4.35;3.42;;;28.40;96.40;;;;;;4681293;30;20139;-91
2022/08/19 13:21:28;;;;;;;9.15;4.35;;;28.10;97.80;;;;;;4714080;30;20385;-92
2022/08/19 13:23:54;;;;;;;7.88;4.18;;;27.90;99.20;;;;;;4708596;30;20072;-88
2022/08/19 13:26:23;;;;;;;9.00;4.00;;;27.60;99.70;;;;;;4742505;30;20048;-88
2022/08/19 13:34:30;;;;;;;5.90;3.88;;;26.60;99.90;;;;;;4725101;30;19926;-86
2022/08/19 13:36:56;;;;;;;6.88;3.38;;;26.30;99.90;;;;;;4694825;30;20097;-85
2022/08/19 13:39:22;;;;;;;4.63;2.78;;;25.80;99.90;;;;;;4706937;30;20137;-86
2022/08/19 13:41:49;;;;;;;10.48;4.97;;;25.60;99.90;;;;;;4724915;30;20053;-85
2022/08/19 13:44:19;;;;;;;5.10;3.40;;;25.50;99.90;;;;;;4727417;30;20048;-86
2022/08/19 13:46:48;;;;;;;5.10;3.03;;;25.20;99.90;;;;;;4701949;30;20132;-85
2022/08/19 13:49:14;;;;;;;6.95;4.32;;;25.00;99.90;;;;;;4708340;30;20061;-86
2022/08/19 13:51:42;;;;;;;5.20;3.33;;;25.00;99.90;;;;;;4725438;30;20052;-86
2022/08/19 13:54:09;;;;;;;5.70;3.33;;;25.10;99.90;;;;;;4729001;30;20063;-86
2022/08/19 13:56:40;;;;;;;4.40;2.30;;;25.00;99.90;;;;;;4709521;30;20065;-84
2022/08/19 14:00:02;;;;;;;;;;;;;;;;;;;;;
2022/08/19 14:02:38;;;;;;;6.18;3.72;;;25.10;99.90;;;;;;4692938;30;20508;-86
2022/08/19 14:09:31;;;;;;;7.22;3.55;;;25.20;99.90;;;;;;4725072;30;20177;-85
2022/08/19 14:12:00;;;;;;;8.70;3.80;;;25.20;99.90;;;;;;4704829;30;20507;-86
2022/08/19 14:14:28;;;;;;;6.15;3.50;;;25.20;99.90;;;;;;4711652;30;20053;-86
2022/08/19 14:17:36;;;;;;;;;;;;;;;;;;;;;
2022/08/19 14:20:08;;;;;;;4.75;3.15;;;25.20;99.90;;;;;;4649441;30;20513;-86
2022/08/19 14:22:40;;;;;;;13.60;5.20;;;25.30;99.90;;;;;;4646908;30;20070;-88
2022/08/19 14:25:09;;;;;;;7.35;5.28;;;25.50;99.90;;;;;;4656688;30;20050;-87
2022/08/19 14:27:41;;;;;;;8.18;4.18;;;25.90;99.90;;;;;;4649568;30;20066;-86
2022/08/19 14:30:12;;;;;;;9.27;5.00;;;26.30;99.90;;;;;;4650125;30;20099;-86
2022/08/19 14:32:38;;;;;;;8.13;4.40;;;26.50;99.90;;;;;;4649209;30;20071;-84
2022/08/19 14:35:07;;;;;;;12.48;4.70;;;26.30;99.90;;;;;;4654238;30;20059;-88
2022/08/19 14:37:34;;;;;;;6.80;3.58;;;26.40;99.90;;;;;;4663881;30;20079;-89
2022/08/19 14:40:00;;;;;;;6.90;2.65;;;26.00;99.90;;;;;;4652030;30;20059;-87
2022/08/19 14:42:25;;;;;;;5.53;2.30;;;26.00;99.90;;;;;;4639208;30;20142;-90
2022/08/19 14:44:59;;;;;;;7.18;3.03;;;26.10;99.90;;;;;;4655891;30;20118;-90
2022/08/19 14:47:27;;;;;;;3.75;2.55;;;26.10;99.90;;;;;;4657664;30;20063;-88
2022/08/19 14:58:00;;;;;;;3.85;2.28;;;27.00;99.90;;;;;;4704700;30;20067;-89
2022/08/19 15:00:29;;;;;;;5.90;2.43;;;27.20;99.90;;;;;;4734046;30;20055;-89
2022/08/19 15:03:19;;;;;;;6.20;3.00;;;27.00;99.90;;;;;;4689983;30;20296;-89
2022/08/19 15:06:07;;;;;;;5.85;3.83;;;27.10;99.90;;;;;;4720141;30;20474;-88
2022/08/19 15:09:35;;;;;;;;;;;;;;;;;;;;;
2022/08/19 15:22:42;;;;;;;4.10;1.90;;;26.70;99.90;;;;;;5023741;24;20423;-89
2022/08/19 15:33:14;;;;;;;6.85;2.40;;;25.90;99.90;;;;;;4742752;30;20383;-89
2022/08/19 16:12:09;;;;;;;6.47;3.47;;;25.20;99.90;;;;;;5431827;24;21218;-89
2022/08/19 16:35:18;;;;;;;7.25;2.40;;;24.40;99.90;;;;;;4678747;30;20084;-88
2022/08/19 16:37:44;;;;;;;3.00;1.30;;;24.30;99.90;;;;;;4661047;30;20109;-86
2022/08/19 16:40:32;;;;;;;2.92;1.50;;;24.20;99.90;;;;;;4648952;30;20058;-88
2022/08/19 16:43:40;;;;;;;5.97;1.88;;;24.10;99.90;;;;;;4643939;30;20125;-87
2022/08/19 16:47:05;;;;;;;;;;;;;;;;;;;;;
2022/08/19 16:49:54;;;;;;;2.28;1.50;;;24.00;99.90;;;;;;4660658;30;20616;-90
2022/08/19 16:52:20;;;;;;;3.33;1.65;;;23.90;99.90;;;;;;4663283;30;20063;-86
2022/08/19 17:19:40;;;;;;;4.78;2.75;;;23.40;99.90;;;;;;5224436;24;20412;-88
2022/08/19 17:52:49;;;;;;;8.60;2.88;;;22.90;99.90;;;;;;4008507;24;20057;-88
2022/08/19 17:55:56;;;;;;;6.72;3.15;;;22.90;99.90;;;;;;4735087;24;20052;-84
2022/08/19 18:04:06;;;;;;;3.25;1.95;;;22.80;99.90;;;;;;2907302;24;20065;-87
2022/08/19 18:06:35;;;;;;;5.75;2.92;;;22.80;99.90;;;;;;4701612;30;20500;-87
2022/08/19 18:09:01;;;;;;;5.68;3.17;;;22.70;99.90;;;;;;4703734;30;20066;-87
2022/08/19 18:11:26;;;;;;;7.47;3.42;;;22.70;99.90;;;;;;4693807;30;20061;-84
2022/08/19 18:13:52;;;;;;;8.05;3.05;;;22.60;99.90;;;;;;4708093;30;20053;-86
2022/08/19 18:16:19;;;;;;;7.30;2.75;;;22.60;99.90;;;;;;4722688;30;20045;-86
2022/08/19 18:18:45;;;;;;;6.03;2.92;;;22.60;99.90;;;;;;4696869;30;20060;-88
2022/08/19 18:21:11;;;;;;;8.80;4.03;;;22.60;99.90;;;;;;4711015;30;20435;-88
2022/08/19 18:23:37;;;;;;;4.85;3.03;;;22.60;99.90;;;;;;4708563;30;20500;-91
2022/08/19 18:26:03;;;;;;;5.88;3.47;;;22.60;99.90;;;;;;4711696;30;20413;-88
2022/08/19 18:28:29;;;;;;;4.15;2.25;;;22.60;99.90;;;;;;4710414;30;20397;-88
2022/08/19 18:30:55;;;;;;;7.35;2.72;;;22.50;99.90;;;;;;4725827;30;20053;-86
2022/08/19 18:33:21;;;;;;;3.47;1.80;;;22.50;99.90;;;;;;4715747;30;20060;-89
2022/08/19 18:35:50;;;;;;;4.88;2.42;;;22.50;99.90;;;;;;4716801;30;20132;-83
2022/08/19 18:49:26;;;;;;;5.80;2.67;;;22.30;99.90;;;;;;4707035;30;20133;-86
2022/08/19 18:51:54;;;;;;;2.40;1.35;;;22.20;99.90;;;;;;4688461;30;20164;-84
2022/08/19 18:54:20;;;;;;;3.10;1.45;;;22.20;99.90;;;;;;4720417;30;20490;-88
2022/08/19 18:56:46;;;;;;;2.85;1.40;;;22.20;99.90;;;;;;4707796;30;20519;-87
2022/08/19 18:59:13;;;;;;;3.20;1.63;;;22.10;99.90;;;;;;4706942;30;20120;-87
2022/08/19 19:01:49;;;;;;;1.77;1.05;;;22.10;99.90;;;;;;4708508;30;20492;-88
2022/08/19 19:04:16;;;;;;;2.60;1.50;;;22.00;99.90;;;;;;4711683;30;20559;-85
2022/08/19 19:06:43;;;;;;;3.95;1.75;;;22.00;99.90;;;;;;4703406;30;20069;-83
2022/08/19 19:09:18;;;;;;;3.15;1.58;;;22.00;99.90;;;;;;4710106;30;20057;-86
2022/08/19 19:11:45;;;;;;;;;;;22.00;99.90;;;;;;4708528;30;20050;-86
2022/08/19 19:14:15;;;;;;;2.20;1.38;;;21.90;99.90;;;;;;4704961;30;19923;-87
2022/08/19 19:16:47;;;;;;;2.90;1.65;;;21.90;99.90;;;;;;4703410;30;20065;-86
2022/08/19 19:19:14;;;;;;;1.95;1.15;;;21.80;99.90;;;;;;4715316;30;20124;-82
2022/08/19 19:21:45;;;;;;;2.65;1.48;;;21.80;99.90;;;;;;4707305;30;20057;-86
2022/08/19 19:24:13;;;;;;;2.28;1.30;;;21.70;99.90;;;;;;4714042;30;20142;-85
2022/08/19 19:26:40;;;;;;;3.55;1.95;;;21.70;99.90;;;;;;4712285;30;20065;-87
2022/08/19 19:29:05;;;;;;;4.07;1.88;;;21.60;99.90;;;;;;4709667;30;20058;-88
2022/08/19 19:31:32;;;;;;;4.90;2.35;;;21.50;99.90;;;;;;4695381;30;20126;-87
2022/08/19 19:33:59;;;;;;;3.05;1.52;;;21.50;99.90;;;;;;4692123;30;20088;-85
2022/08/19 19:36:25;;;;;;;2.25;1.27;;;21.40;99.90;;;;;;4712630;30;20072;-85
2022/08/19 19:38:51;;;;;;;1.60;1.08;;;21.30;99.90;;;;;;4690342;30;20061;-88
2022/08/19 19:41:23;;;;;;;2.30;1.13;;;21.20;99.90;;;;;;4721667;30;20511;-89
2022/08/19 19:43:54;;;;;;;2.08;1.38;;;21.20;99.90;;;;;;4696399;30;20509;-81
2022/08/19 19:46:20;;;;;;;2.90;1.63;;;21.20;99.90;;;;;;4711710;30;20505;-85
2022/08/19 19:48:46;;;;;;;3.10;1.67;;;21.10;99.90;;;;;;4711952;30;20095;-88
2022/08/19 19:51:13;;;;;;;2.63;1.38;;;21.10;99.90;;;;;;4706903;30;20594;-90
2022/08/19 19:53:38;;;;;;;4.72;2.53;;;21.10;99.90;;;;;;4706458;30;20067;-87
2022/08/19 19:56:05;;;;;;;2.95;1.70;;;21.10;99.90;;;;;;4709541;30;20053;-87
2022/08/19 19:58:33;;;;;;;4.47;3.15;;;21.10;99.90;;;;;;4707733;30;20060;-86
2022/08/19 20:01:00;;;;;;;2.00;1.20;;;21.10;99.90;;;;;;4706145;30;20488;-86
2022/08/19 20:03:26;;;;;;;2.40;0.82;;;21.00;99.90;;;;;;4718461;30;20093;-90
2022/08/19 20:05:52;;;;;;;1.70;1.08;;;20.90;99.90;;;;;;4702647;30;20061;-88
2022/08/19 20:11:04;;;;;;;2.90;1.13;;;21.00;99.90;;;;;;4708493;30;20527;-88
2022/08/19 20:13:30;;;;;;;2.35;1.00;;;20.90;99.90;;;;;;4718181;30;20513;-85
2022/08/19 20:15:56;;;;;;;1.77;1.17;;;20.90;99.90;;;;;;4708604;30;20073;-85
2022/08/19 20:18:23;;;;;;;2.72;1.13;;;20.90;99.90;;;;;;4711492;30;20515;-85
2022/08/19 20:20:50;;;;;;;1.05;0.75;;;20.90;99.90;;;;;;4696209;30;20427;-88
2022/08/19 20:23:20;;;;;;;2.00;1.40;;;20.90;99.90;;;;;;4695300;30;20061;-85
2022/08/19 20:25:59;;;;;;;2.28;1.10;;;20.80;99.90;;;;;;4726500;30;20057;-83
2022/08/19 20:28:24;;;;;;;1.58;0.80;;;20.80;99.90;;;;;;4715430;30;20081;-88
2022/08/19 20:30:50;;;;;;;1.30;0.70;;;20.80;99.90;;;;;;4709679;30;20119;-85
2022/08/19 20:33:16;;;;;;;1.52;0.70;;;20.80;99.90;;;;;;4723690;30;20462;-88
2022/08/19 20:35:43;;;;;;;1.48;0.80;;;20.80;99.90;;;;;;4711150;30;20156;-85
2022/08/19 20:38:13;;;;;;;1.30;0.98;;;20.80;99.90;;;;;;4724382;30;20103;-86
2022/08/19 20:40:40;;;;;;;3.83;2.20;;;20.80;99.90;;;;;;4700815;30;20139;-85
2022/08/19 20:43:07;;;;;;;11.18;3.20;;;20.80;99.90;;;;;;4716619;30;20052;-86
2022/08/19 20:45:35;;;;;;;2.78;1.80;;;20.80;99.90;;;;;;4711597;30;20068;-85
2022/08/19 20:48:03;;;;;;;2.50;1.50;;;20.80;99.90;;;;;;4726448;30;20058;-85
2022/08/19 20:50:30;;;;;;;4.30;2.10;;;20.70;99.90;;;;;;4704253;30;20508;-85
2022/08/19 20:52:56;;;;;;;4.97;2.63;;;20.70;99.90;;;;;;4700414;30;20072;-86
2022/08/19 20:55:22;;;;;;;4.93;2.30;;;20.70;99.90;;;;;;4708772;30;20156;-89
2022/08/19 20:57:47;;;;;;;5.30;2.55;;;20.50;99.90;;;;;;4678714;30;20535;-86
2022/08/19 21:00:13;;;;;;;3.05;2.33;;;20.70;99.90;;;;;;4720252;30;20168;-86
2022/08/19 21:02:39;;;;;;;2.42;1.50;;;20.70;99.90;;;;;;4696221;30;20065;-86
2022/08/19 21:05:06;;;;;;;3.13;1.33;;;20.70;99.90;;;;;;4710574;30;20386;-88
2022/08/19 21:07:32;;;;;;;1.67;1.00;;;20.60;99.90;;;;;;4708472;30;20166;-86
2022/08/19 21:09:58;;;;;;;2.53;0.93;;;20.70;99.90;;;;;;4695133;30;20053;-87
2022/08/19 21:12:26;;;;;;;3.63;1.88;;;20.60;99.90;;;;;;4694192;30;20130;-86
2022/08/19 21:14:52;;;;;;;1.95;1.00;;;20.60;99.90;;;;;;4707572;30;20504;-84
2022/08/19 21:17:18;;;;;;;4.07;2.13;;;20.60;99.90;;;;;;4725539;30;20052;-85
2022/08/19 21:19:43;;;;;;;2.70;1.45;;;20.60;99.90;;;;;;4719987;30;20061;-86
2022/08/19 21:22:09;;;;;;;4.15;1.60;;;20.60;99.90;;;;;;4709869;30;20057;-85
2022/08/19 21:24:36;;;;;;;4.25;3.25;;;20.50;99.90;;;;;;4708414;30;20064;-85
2022/08/19 21:27:02;;;;;;;5.53;3.05;;;20.50;99.90;;;;;;4708172;30;20150;-85
2022/08/19 21:29:27;;;;;;;3.67;2.10;;;20.70;99.90;;;;;;4707875;30;20057;-86
2022/08/19 21:31:53;;;;;;;3.53;1.77;;;20.60;99.90;;;;;;4699987;30;20518;-84
2022/08/19 21:34:22;;;;;;;3.63;2.25;;;20.60;99.90;;;;;;4692587;30;20200;-86
2022/08/19 21:36:48;;;;;;;4.20;1.75;;;20.50;99.90;;;;;;4711394;30;20053;-85
2022/08/19 21:39:13;;;;;;;3.95;1.80;;;20.50;99.90;;;;;;4715599;30;20056;-86
2022/08/19 21:41:39;;;;;;;2.08;0.90;;;20.50;99.90;;;;;;4686224;30;20510;-87
2022/08/19 21:44:05;;;;;;;1.60;0.80;;;20.50;99.90;;;;;;4691316;30;20056;-87
2022/08/19 21:46:32;;;;;;;0.95;0.60;;;20.40;99.90;;;;;;4700686;30;20483;-86
2022/08/19 21:49:01;;;;;;;1.80;1.08;;;20.40;99.90;;;;;;4714397;30;20503;-83
2022/08/19 21:51:26;;;;;;;1.55;0.65;;;20.40;99.90;;;;;;4703632;30;20184;-84
2022/08/19 21:53:52;;;;;;;1.73;1.10;;;20.40;99.90;;;;;;4701551;30;20497;-85
2022/08/19 21:56:18;;;;;;;4.80;1.67;;;20.30;99.90;;;;;;4701276;30;20053;-85
2022/08/19 21:58:43;;;;;;;3.47;1.33;;;20.40;99.90;;;;;;4706067;30;20058;-86
2022/08/19 22:01:09;;;;;;;1.73;0.70;;;20.30;99.90;;;;;;4706691;30;20058;-83
2022/08/19 22:03:36;;;;;;;2.10;0.85;;;20.30;99.90;;;;;;4709283;30;20096;-84
2022/08/19 22:06:02;;;;;;;1.67;1.25;;;20.30;99.90;;;;;;4717963;30;20060;-84
2022/08/19 22:08:30;;;;;;;1.02;0.60;;;20.30;99.90;;;;;;4695926;30;20057;-82
2022/08/19 22:10:58;;;;;;;1.23;0.77;;;20.30;99.90;;;;;;4726299;30;20509;-83
2022/08/19 22:13:25;;;;;;;2.17;1.10;;;20.30;99.90;;;;;;4709685;30;20126;-83
2022/08/19 22:15:50;;;;;;;1.98;1.15;;;20.30;99.90;;;;;;4720642;30;20045;-83
2022/08/19 22:18:17;;;;;;;1.00;0.60;;;20.20;99.90;;;;;;4728584;30;20561;-82
2022/08/19 22:21:05;;;;;;;;;;;;;;;;;;;;;
2022/08/19 22:23:44;;;;;;;1.30;0.85;;;20.20;99.90;;;;;;4704767;30;20106;-84
2022/08/19 22:26:15;;;;;;;1.30;0.80;;;20.20;99.90;;;;;;4716325;30;20067;-84
2022/08/19 22:28:44;;;;;;;1.10;0.60;;;20.20;99.90;;;;;;4724190;30;20061;-86
2022/08/19 22:31:11;;;;;;;1.92;0.95;;;20.10;99.90;;;;;;4713066;30;20475;-82
2022/08/19 22:33:40;;;;;;;1.42;0.77;;;20.10;99.90;;;;;;4737347;30;20070;-84
2022/08/19 22:39:05;;;;;;;1.65;0.90;;;20.00;99.90;;;;;;4717694;30;20059;-84